Time;durP1;ratioP1;P1;durP2;ratioP2;P2;SDS_P1;SDS_P2;PMS_P1;PMS_P2;Temp;Humidity;BMP_temperature;BMP_pressure;BME280_temperature;BME280_humidity;BME280_pressure;Samples;Min_cycle;Max_cycle;Signal;HPM_P1;HPM_P2
2020/12/02 00:00:41;;;;;;;;;;;;;;;-0.51;100.00;96436.03;5037442;28;19959;-49
2020/12/02 00:03:11;;;;;;;;;;;;;;;-0.52;100.00;96442.97;5063367;28;19995;-46
2020/12/02 00:05:41;;;;;;;;;;;;;;;-0.60;100.00;96442.50;5045713;28;20051;-46
2020/12/02 00:08:09;;;;;;;;;;;;;;;-0.55;100.00;96435.34;5068686;28;20390;-49
2020/12/02 00:10:36;;;;;;;;;;;;;;;-0.60;100.00;96442.50;5046740;28;19996;-48
2020/12/02 00:13:03;;;;;;;;;;;;;;;-0.60;100.00;96433.88;5079213;28;20019;-48
2020/12/02 00:15:30;;;;;;;;;;;;;;;-0.62;100.00;96433.97;5025856;28;19948;-47
2020/12/02 00:17:57;;;;;;;;;;;;;;;-0.60;100.00;96442.50;5064496;28;20006;-46
2020/12/02 00:20:24;;;;;;;;;;;;;;;-0.59;100.00;96448.50;5016400;28;20022;-51
2020/12/02 00:22:52;;;;;;;;;;;;;;;-0.62;100.00;96440.88;5066276;28;19963;-46
2020/12/02 00:25:22;;;;;;;;;;;;;;;-0.49;100.00;96440.19;5030900;28;19969;-48
2020/12/02 00:27:49;;;;;;;;;;;;;;;-0.45;100.00;96448.63;5067214;28;19992;-47
2020/12/02 00:30:17;;;;;;;;;;;;;;;-0.51;100.00;96446.38;5030820;28;20008;-49
2020/12/02 00:32:45;;;;;;;;;;;;;;;-0.50;100.00;96441.13;5084488;28;20397;-51
2020/12/02 00:35:13;;;;;;;;;;;;;;;-0.40;100.00;96444.09;5045551;28;19964;-47
2020/12/02 00:37:40;;;;;;;;;;;;;;;-0.50;100.00;96448.06;5081882;28;19990;-52
2020/12/02 00:40:09;;;;;;;;;;;;;;;-0.52;100.00;96447.28;5076274;28;20060;-48
2020/12/02 00:42:35;;;;;;;;;;;;;;;-0.60;100.00;96444.25;5032341;28;20335;-49
2020/12/02 00:45:03;;;;;;;;;;;;;;;-0.51;100.00;96447.22;5064855;28;19945;-50
2020/12/02 00:47:30;;;;;;;;;;;;;;;-0.61;100.00;96438.22;5033067;28;20016;-50
2020/12/02 00:49:56;;;;;;;;;;;;;;;-0.62;100.00;96441.75;5057020;28;19963;-47
2020/12/02 00:52:24;;;;;;;;;;;;;;;-0.57;100.00;96446.69;5011241;28;19958;-46
2020/12/02 00:54:51;;;;;;;;;;;;;;;-0.62;100.00;96443.47;5087823;28;19993;-48
2020/12/02 00:57:21;;;;;;;;;;;;;;;-0.65;100.00;96436.72;5028709;28;19974;-51
2020/12/02 00:59:50;;;;;;;;;;;;;;;-0.61;100.00;96434.81;5086847;28;19941;-46
2020/12/02 01:02:17;;;;;;;;;;;;;;;-0.55;100.00;96439.66;5036952;28;19969;-49
2020/12/02 01:04:45;;;;;;;;;;;;;;;-0.68;100.00;96438.63;5062902;28;19959;-46
2020/12/02 01:07:12;;;;;;;;;;;;;;;-0.73;100.00;96441.44;5040077;28;20447;-46
2020/12/02 01:09:39;;;;;;;;;;;;;;;-0.65;100.00;96435.88;5067625;28;19956;-52
2020/12/02 01:12:06;;;;;;;;;;;;;;;-0.73;100.00;96439.66;5033509;28;19963;-46
2020/12/02 01:14:34;;;;;;;;;;;;;;;-0.76;100.00;96442.44;5080119;28;19970;-50
2020/12/02 01:17:01;;;;;;;;;;;;;;;-0.75;100.00;96440.69;5042375;28;25209;-48
2020/12/02 01:19:29;;;;;;;;;;;;;;;-0.89;100.00;96430.16;5077060;28;20575;-46
2020/12/02 01:21:57;;;;;;;;;;;;;;;-0.80;100.00;96435.72;5038131;28;19998;-46
2020/12/02 01:24:24;;;;;;;;;;;;;;;-0.80;100.00;96434.88;5062684;28;19994;-47
2020/12/02 01:26:52;;;;;;;;;;;;;;;-0.86;100.00;96436.03;5068491;28;20492;-48
2020/12/02 01:29:21;;;;;;;;;;;;;;;-0.94;100.00;96443.31;5039521;28;19962;-48
2020/12/02 01:31:50;;;;;;;;;;;;;;;-1.00;100.00;96436.72;5073097;28;19959;-46
2020/12/02 01:34:18;;;;;;;;;;;;;;;-1.01;100.00;96434.19;5028265;28;19967;-46
2020/12/02 01:36:49;;;;;;;;;;;;;;;-1.05;100.00;96435.25;5059766;28;19970;-51
2020/12/02 01:39:16;;;;;;;;;;;;;;;-1.06;100.00;96433.59;5033532;28;20027;-46
2020/12/02 01:41:42;;;;;;;;;;;;;;;-1.03;100.00;96436.03;5066950;28;19957;-52
2020/12/02 01:44:09;;;;;;;;;;;;;;;-0.99;100.00;96429.78;5024885;28;19993;-51
2020/12/02 01:46:38;;;;;;;;;;;;;;;-0.98;100.00;96434.03;5064540;28;20016;-51
2020/12/02 01:49:23;;;;;;;;;;;;;;;-0.96;100.00;96429.63;5029440;28;20425;-47
2020/12/02 01:51:56;;;;;;;;;;;;;;;-0.99;100.00;96433.19;5060528;28;19955;-49
2020/12/02 01:54:24;;;;;;;;;;;;;;;-1.12;100.00;96432.13;5028893;28;19980;-46
2020/12/02 01:56:53;;;;;;;;;;;;;;;-1.20;100.00;96421.31;5073303;28;20008;-47
2020/12/02 01:59:23;;;;;;;;;;;;;;;-1.32;100.00;96419.31;5035778;28;19958;-51
2020/12/02 02:02:02;;;;;;;;;;;;;;;-1.31;100.00;96418.38;5066178;28;19959;-45
2020/12/02 02:04:33;;;;;;;;;;;;;;;-1.37;100.00;96414.34;5032051;28;19959;-45
2020/12/02 02:07:04;;;;;;;;;;;;;;;-1.35;100.00;96414.28;5070528;28;19966;-46
2020/12/02 02:09:32;;;;;;;;;;;;;;;-1.52;100.00;96412.47;5025931;28;19945;-48
2020/12/02 02:12:02;;;;;;;;;;;;;;;-1.57;100.00;96417.88;5073445;28;19944;-49
2020/12/02 02:14:30;;;;;;;;;;;;;;;-1.56;100.00;96409.19;5032891;28;19967;-48
2020/12/02 02:16:57;;;;;;;;;;;;;;;-1.46;100.00;96410.44;5067979;28;20065;-51
2020/12/02 02:19:25;;;;;;;;;;;;;;;-1.64;100.00;96416.50;5025845;28;20742;-48
2020/12/02 02:21:54;;;;;;;;;;;;;;;-1.65;100.00;96419.13;5065900;28;19962;-47
2020/12/02 02:24:20;;;;;;;;;;;;;;;-1.80;100.00;96421.50;5037878;28;19993;-48
2020/12/02 02:26:49;;;;;;;;;;;;;;;-1.74;100.00;96420.41;5061856;28;19971;-45
2020/12/02 02:29:16;;;;;;;;;;;;;;;-1.74;100.00;96420.41;5068942;28;20004;-46
2020/12/02 02:31:46;;;;;;;;;;;;;;;-1.70;100.00;96409.84;5036210;28;20001;-46
2020/12/02 02:34:13;;;;;;;;;;;;;;;-1.65;100.00;96409.66;5067487;28;20431;-48
2020/12/02 02:36:40;;;;;;;;;;;;;;;-1.81;100.00;96416.44;5035809;28;20502;-55
2020/12/02 02:39:08;;;;;;;;;;;;;;;-1.74;100.00;96410.06;5091586;28;19953;-46
2020/12/02 02:41:35;;;;;;;;;;;;;;;-1.76;100.00;96407.53;5031208;28;20073;-50
2020/12/02 02:44:03;;;;;;;;;;;;;;;-1.78;100.00;96404.19;5063670;28;20023;-47
2020/12/02 02:46:30;;;;;;;;;;;;;;;-1.84;100.00;96416.56;5029093;28;20009;-46
2020/12/02 02:48:57;;;;;;;;;;;;;;;-1.83;100.00;96415.66;5060971;28;19967;-48
2020/12/02 02:51:23;;;;;;;;;;;;;;;-1.72;100.00;96416.84;5027938;28;19958;-48
2020/12/02 02:53:50;;;;;;;;;;;;;;;-1.73;100.00;96411.72;5065876;28;19965;-47
2020/12/02 02:56:17;;;;;;;;;;;;;;;-1.64;100.00;96413.06;5035385;28;20014;-51
2020/12/02 02:58:44;;;;;;;;;;;;;;;-1.58;100.00;96402.41;5067436;28;19958;-46
2020/12/02 03:01:12;;;;;;;;;;;;;;;-1.59;100.00;96401.59;5031509;28;20081;-48
2020/12/02 03:03:38;;;;;;;;;;;;;;;-1.65;100.00;96411.38;5087632;28;20018;-46
2020/12/02 03:06:06;;;;;;;;;;;;;;;-1.67;100.00;96404.53;5056176;28;20030;-47
2020/12/02 03:08:33;;;;;;;;;;;;;;;-1.71;100.00;96410.75;5089966;28;20380;-46
2020/12/02 03:11:00;;;;;;;;;;;;;;;-1.64;100.00;96407.91;5086612;28;20003;-46
2020/12/02 03:13:29;;;;;;;;;;;;;;;-1.65;100.00;96407.06;5046254;28;19975;-48
2020/12/02 03:15:57;;;;;;;;;;;;;;;-1.76;100.00;96402.38;5088165;28;20041;-48
2020/12/02 03:18:24;;;;;;;;;;;;;;;-1.75;100.00;96409.22;5046607;28;20366;-54
2020/12/02 03:20:53;;;;;;;;;;;;;;;-1.70;100.00;96409.00;5092278;28;19969;-46
2020/12/02 03:23:20;;;;;;;;;;;;;;;-1.73;100.00;96411.72;5048364;28;20352;-49
2020/12/02 03:25:48;;;;;;;;;;;;;;;-1.63;100.00;96406.97;5083620;28;20038;-48
2020/12/02 03:28:15;;;;;;;;;;;;;;;-1.67;100.00;96409.69;5058640;28;20053;-48
2020/12/02 03:30:41;;;;;;;;;;;;;;;-1.76;100.00;96407.53;5086845;28;20290;-49
2020/12/02 03:33:09;;;;;;;;;;;;;;;-1.64;100.00;96407.91;5051355;28;19956;-45
2020/12/02 03:35:37;;;;;;;;;;;;;;;-1.73;100.00;96402.22;5086604;28;20029;-49
2020/12/02 03:38:03;;;;;;;;;;;;;;;-1.85;100.00;96401.97;5043462;28;20416;-49
2020/12/02 03:40:30;;;;;;;;;;;;;;;-1.74;100.00;96394.56;5088221;28;20011;-51
2020/12/02 03:42:57;;;;;;;;;;;;;;;-1.78;100.00;96398.19;5049206;28;20000;-52
2020/12/02 03:45:23;;;;;;;;;;;;;;;-1.91;100.00;96403.09;5083342;28;20416;-47
2020/12/02 03:47:50;;;;;;;;;;;;;;;-1.85;100.00;96409.72;5051070;28;20014;-46
2020/12/02 03:50:18;;;;;;;;;;;;;;;-1.87;100.00;96409.78;5084308;28;19960;-49
2020/12/02 03:52:45;;;;;;;;;;;;;;;-1.92;100.00;96402.25;5052436;28;20046;-52
2020/12/02 03:55:12;;;;;;;;;;;;;;;-1.97;100.00;96396.44;5076061;28;19966;-45
2020/12/02 03:57:39;;;;;;;;;;;;;;;-1.96;100.00;96397.31;5082947;28;20074;-49
2020/12/02 04:00:07;;;;;;;;;;;;;;;-1.98;100.00;96393.94;5058376;28;20028;-47
2020/12/02 04:02:33;;;;;;;;;;;;;;;-1.89;100.00;96396.13;5081305;28;20064;-46
2020/12/02 04:05:00;;;;;;;;;;;;;;;-1.92;100.00;96407.41;5046222;28;19994;-46
2020/12/02 04:07:29;;;;;;;;;;;;;;;-1.83;100.00;96408.72;5084579;28;19968;-49
2020/12/02 04:10:04;;;;;;;;;;;;;;;-1.88;100.00;96402.94;5050501;28;19966;-46
2020/12/02 04:12:30;;;;;;;;;;;;;;;-1.92;100.00;96398.84;5084895;28;19955;-45
2020/12/02 04:14:57;;;;;;;;;;;;;;;-1.97;100.00;96399.03;5038774;28;20001;-46
2020/12/02 04:17:24;;;;;;;;;;;;;;;-1.88;100.00;96402.13;5086548;28;19969;-47
2020/12/02 04:19:51;;;;;;;;;;;;;;;-1.85;100.00;96395.06;5046461;28;20068;-47
2020/12/02 04:22:18;;;;;;;;;;;;;;;-1.83;100.00;96388.06;5083373;28;20076;-46
2020/12/02 04:24:44;;;;;;;;;;;;;;;-1.78;100.00;96386.09;5046240;28;19962;-48
2020/12/02 04:27:12;;;;;;;;;;;;;;;-1.79;100.00;96379.28;5085594;28;19974;-48
2020/12/02 04:29:39;;;;;;;;;;;;;;;-1.82;100.00;96381.16;5047742;28;19961;-46
2020/12/02 04:32:06;;;;;;;;;;;;;;;-1.72;100.00;96380.66;5082339;28;19966;-51
2020/12/02 04:34:33;;;;;;;;;;;;;;;-1.62;100.00;96372.44;5044972;28;20375;-49
2020/12/02 04:36:59;;;;;;;;;;;;;;;-1.65;100.00;96375.19;5086087;28;20011;-47
2020/12/02 04:39:26;;;;;;;;;;;;;;;-1.70;100.00;96365.06;5083869;28;20073;-46
2020/12/02 04:41:53;;;;;;;;;;;;;;;-1.79;100.00;96361.19;5051411;28;19941;-46
2020/12/02 04:44:21;;;;;;;;;;;;;;;-1.74;100.00;96366.97;5078037;28;20010;-46
2020/12/02 04:46:47;;;;;;;;;;;;;;;-1.68;100.00;96361.50;5041103;28;20471;-47
2020/12/02 04:49:15;;;;;;;;;;;;;;;-1.78;100.00;96365.44;5084734;28;19966;-48
2020/12/02 04:51:42;;;;;;;;;;;;;;;-1.77;100.00;96354.16;5035035;28;20076;-50
2020/12/02 04:54:09;;;;;;;;;;;;;;;-1.80;100.00;96359.47;5087108;28;19973;-46
2020/12/02 04:56:36;;;;;;;;;;;;;;;-1.81;100.00;96357.81;5033478;28;19972;-46
2020/12/02 04:59:03;;;;;;;;;;;;;;;-1.80;100.00;96346.56;5079425;28;19963;-46
2020/12/02 05:01:31;;;;;;;;;;;;;;;-1.78;100.00;96346.50;5045583;28;20137;-45
2020/12/02 05:03:59;;;;;;;;;;;;;;;-1.80;100.00;96343.97;5087967;28;20543;-47
2020/12/02 05:06:29;;;;;;;;;;;;;;;-1.84;100.00;96341.63;5048690;28;20401;-46
2020/12/02 05:09:12;;;;;;;;;;;;;;;-1.80;100.00;96346.56;5087411;28;19963;-46
2020/12/02 05:11:39;;;;;;;;;;;;;;;-1.78;100.00;96337.00;5045593;28;19958;-48
2020/12/02 05:14:07;;;;;;;;;;;;;;;-1.85;100.00;96339.94;5083076;28;19971;-46
2020/12/02 05:16:35;;;;;;;;;;;;;;;-1.75;100.00;96343.78;5037220;28;19960;-46
2020/12/02 05:19:02;;;;;;;;;;;;;;;-1.78;100.00;96341.34;5085575;28;19992;-50
2020/12/02 05:21:30;;;;;;;;;;;;;;;-1.75;100.00;96343.78;5049208;28;19955;-47
2020/12/02 05:24:01;;;;;;;;;;;;;;;-1.74;100.00;96337.69;5084114;28;20060;-46
2020/12/02 05:26:29;;;;;;;;;;;;;;;-1.76;100.00;96339.50;5046505;28;19969;-46
2020/12/02 05:28:55;;;;;;;;;;;;;;;-1.77;100.00;96349.00;5084658;28;20368;-48
2020/12/02 05:31:23;;;;;;;;;;;;;;;-1.73;100.00;96344.53;5081512;28;19964;-50
2020/12/02 05:33:51;;;;;;;;;;;;;;;-1.72;100.00;96347.06;5047551;28;20504;-46
2020/12/02 05:36:18;;;;;;;;;;;;;;;-1.71;100.00;96353.88;5079787;28;19960;-49
2020/12/02 05:38:49;;;;;;;;;;;;;;;-1.87;100.00;96357.25;5048406;28;19954;-45
2020/12/02 05:41:16;;;;;;;;;;;;;;;-1.76;100.00;96350.66;5083904;28;19967;-45
2020/12/02 05:43:45;;;;;;;;;;;;;;;-1.77;100.00;96354.16;5046414;28;19970;-49
2020/12/02 05:46:17;;;;;;;;;;;;;;;-1.85;100.00;96351.13;5082760;28;19996;-48
2020/12/02 05:48:43;;;;;;;;;;;;;;;-1.81;100.00;96355.22;5045227;28;20377;-49
2020/12/02 05:51:14;;;;;;;;;;;;;;;-1.85;100.00;96347.72;5059275;28;19953;-46
2020/12/02 05:53:42;;;;;;;;;;;;;;;-1.77;100.00;96355.94;5043002;28;19968;-47
2020/12/02 05:56:09;;;;;;;;;;;;;;;-1.77;100.00;96349.00;5080754;28;20053;-46
2020/12/02 05:58:36;;;;;;;;;;;;;;;-1.71;100.00;96350.47;5037254;28;20000;-48
2020/12/02 06:01:03;;;;;;;;;;;;;;;-1.79;100.00;96345.69;5081196;28;19965;-46
2020/12/02 06:03:32;;;;;;;;;;;;;;;-1.85;100.00;96355.47;5043820;28;19945;-46
2020/12/02 06:05:59;;;;;;;;;;;;;;;-1.81;100.00;96347.47;5088173;28;20060;-50
2020/12/02 06:08:35;;;;;;;;;;;;;;;-1.82;100.00;96353.56;5050132;28;19997;-46
2020/12/02 06:11:25;;;;;;;;;;;;;;;-1.83;100.00;96356.22;5076804;28;20385;-46
2020/12/02 06:13:53;;;;;;;;;;;;;;;-1.77;100.00;96355.94;5043603;28;19967;-48
2020/12/02 06:16:28;;;;;;;;;;;;;;;-1.74;100.00;96353.19;5083366;28;20034;-46
2020/12/02 06:18:55;;;;;;;;;;;;;;;-1.63;100.00;96357.84;5038167;28;20060;-51
2020/12/02 06:21:28;;;;;;;;;;;;;;;-1.73;100.00;96365.22;5085920;28;19951;-50
2020/12/02 06:23:56;;;;;;;;;;;;;;;-1.73;100.00;96358.28;5044479;28;20464;-50
2020/12/02 06:26:33;;;;;;;;;;;;;;;-1.71;100.00;96364.22;5078031;28;19972;-47
2020/12/02 06:29:00;;;;;;;;;;;;;;;-1.77;100.00;96368.84;5045811;28;20453;-47
2020/12/02 06:31:28;;;;;;;;;;;;;;;-1.80;100.00;96374.16;5081989;28;20003;-47
2020/12/02 06:33:55;;;;;;;;;;;;;;;-1.78;100.00;96367.19;5087155;28;20054;-56
2020/12/02 06:36:23;;;;;;;;;;;;;;;-1.70;100.00;96365.06;5045158;28;19973;-46
2020/12/02 06:38:51;;;;;;;;;;;;;;;-1.70;100.00;96363.31;5080637;28;20328;-49
2020/12/02 06:41:27;;;;;;;;;;;;;;;-1.62;100.00;96367.28;5052305;28;20010;-46
2020/12/02 06:43:55;;;;;;;;;;;;;;;-1.77;100.00;96368.84;5084029;28;19968;-51
2020/12/02 06:46:43;;;;;;;;;;;;;;;-1.82;100.00;96363.91;5045730;28;20348;-50
2020/12/02 06:49:10;;;;;;;;;;;;;;;-1.80;100.00;96369.81;5088665;28;19962;-48
2020/12/02 06:51:37;;;;;;;;;;;;;;;-1.74;100.00;96373.88;5033873;28;20058;-47
2020/12/02 06:54:04;;;;;;;;;;;;;;;-1.80;100.00;96366.41;5087652;28;20415;-48
2020/12/02 06:56:31;;;;;;;;;;;;;;;-1.81;100.00;96370.75;5048260;28;20013;-46
2020/12/02 06:59:01;;;;;;;;;;;;;;;-1.80;100.00;96367.25;5080390;28;20047;-49
2020/12/02 07:01:28;;;;;;;;;;;;;;;-1.78;100.00;96369.75;5045987;28;19988;-47
2020/12/02 07:03:55;;;;;;;;;;;;;;;-1.71;100.00;96369.41;5081705;28;20010;-46
2020/12/02 07:06:22;;;;;;;;;;;;;;;-1.74;100.00;96366.97;5045006;28;19965;-46
2020/12/02 07:08:49;;;;;;;;;;;;;;;-1.70;100.00;96372.81;5090140;28;20029;-46
2020/12/02 07:11:17;;;;;;;;;;;;;;;-1.76;100.00;96376.50;5039106;28;20422;-49
2020/12/02 07:13:46;;;;;;;;;;;;;;;-1.68;100.00;96365.84;5088293;28;20039;-45
2020/12/02 07:16:18;;;;;;;;;;;;;;;-1.69;100.00;96372.75;5053706;28;20428;-51
2020/12/02 07:18:46;;;;;;;;;;;;;;;-1.64;100.00;96366.53;5088068;28;20013;-51
2020/12/02 07:21:18;;;;;;;;;;;;;;;-1.63;100.00;96369.03;5058229;28;19955;-49
2020/12/02 07:23:45;;;;;;;;;;;;;;;-1.64;100.00;96369.94;5077077;28;19985;-47
2020/12/02 07:26:12;;;;;;;;;;;;;;;-1.73;100.00;96378.13;5052210;28;19996;-47
2020/12/02 07:28:39;;;;;;;;;;;;;;;-1.64;100.00;96372.53;5086017;28;19966;-49
2020/12/02 07:31:16;;;;;;;;;;;;;;;-1.71;100.00;96364.22;5075557;28;19963;-56
2020/12/02 07:33:51;;;;;;;;;;;;;;;-1.54;100.00;96368.59;5089081;28;19961;-46
2020/12/02 07:36:23;;;;;;;;;;;;;;;-1.56;100.00;96359.25;5088016;28;20025;-49
2020/12/02 07:38:56;;;;;;;;;;;;;;;-1.57;100.00;96361.00;5060924;28;19971;-48
2020/12/02 07:41:23;;;;;;;;;;;;;;;-1.60;100.00;96355.97;5088137;28;20098;-47
2020/12/02 07:43:50;;;;;;;;;;;;;;;-1.59;100.00;96355.03;5035838;28;20145;-48
2020/12/02 07:46:20;;;;;;;;;;;;;;;-1.44;100.00;96353.50;5089240;28;19970;-47
2020/12/02 07:48:47;;;;;;;;;;;;;;;-1.47;100.00;96348.47;5050797;28;20470;-47
2020/12/02 07:51:17;;;;;;;;;;;;;;;-1.52;100.00;96346.09;5080210;28;19976;-51
2020/12/02 07:53:52;;;;;;;;;;;;;;;-1.37;100.00;96347.09;5054869;28;19951;-45
2020/12/02 07:56:20;;;;;;;;;;;;;;;-1.44;100.00;96337.97;5079412;28;20010;-50
2020/12/02 07:58:47;;;;;;;;;;;;;;;-1.46;99.14;96327.69;5053727;28;19964;-49
2020/12/02 08:01:25;;;;;;;;;;;;;;;-1.52;98.59;96334.91;5086694;28;19960;-49
2020/12/02 08:03:52;;;;;;;;;;;;;;;-1.50;97.81;96331.34;5034864;28;19978;-49
2020/12/02 08:06:28;;;;;;;;;;;;;;;-1.40;96.61;96336.06;5089398;28;20058;-48
2020/12/02 08:08:55;;;;;;;;;;;;;;;-1.33;96.42;96327.94;5053066;28;20037;-46
2020/12/02 08:11:22;;;;;;;;;;;;;;;-1.27;96.46;96337.16;5088037;28;19975;-49
2020/12/02 08:13:50;;;;;;;;;;;;;;;-1.20;97.17;96328.19;5056600;28;19962;-46
2020/12/02 08:16:21;;;;;;;;;;;;;;;-1.16;97.06;96326.28;5086656;28;19962;-48
2020/12/02 08:18:49;;;;;;;;;;;;;;;-1.17;97.32;96327.16;5034289;28;20038;-47
2020/12/02 08:21:16;;;;;;;;;;;;;;;-1.06;97.15;96320.56;5086675;28;19949;-50
2020/12/02 08:23:45;;;;;;;;;;;;;;;-0.92;96.40;96322.44;5044475;28;19948;-49
2020/12/02 08:26:12;;;;;;;;;;;;;;;-1.15;96.61;96315.84;5081980;28;20412;-48
2020/12/02 08:28:41;;;;;;;;;;;;;;;-1.01;96.24;96317.72;5047184;28;19961;-46
2020/12/02 08:31:13;;;;;;;;;;;;;;;-1.24;96.41;96326.63;5081361;28;19962;-47
2020/12/02 08:33:40;;;;;;;;;;;;;;;-0.95;95.19;96309.66;5049772;28;19985;-48
2020/12/02 08:36:09;;;;;;;;;;;;;;;-0.94;93.88;96313.06;5089217;28;19964;-52
2020/12/02 08:38:37;;;;;;;;;;;;;;;-1.10;94.19;96313.00;5088652;28;19993;-50
2020/12/02 08:41:04;;;;;;;;;;;;;;;-1.22;95.17;96312.72;5046516;28;19980;-46
2020/12/02 08:43:33;;;;;;;;;;;;;;;-1.13;95.38;96310.59;5086928;28;20003;-46
2020/12/02 08:46:13;;;;;;;;;;;;;;;-1.11;94.78;96309.59;5056472;28;19969;-46
2020/12/02 08:48:41;;;;;;;;;;;;;;;-1.28;94.57;96314.75;5086646;28;19964;-47
2020/12/02 08:51:08;;;;;;;;;;;;;;;-1.25;95.31;96315.44;5045333;28;19948;-46
2020/12/02 08:53:35;;;;;;;;;;;;;;;-1.32;94.75;96315.84;5088069;28;20391;-47
2020/12/02 08:56:02;;;;;;;;;;;;;;;-1.22;93.82;96315.31;5043475;28;19971;-48
2020/12/02 08:58:29;;;;;;;;;;;;;;;-1.04;93.88;96330.81;5087142;28;20015;-51
2020/12/02 09:00:56;;;;;;;;;;;;;;;-1.28;92.93;96325.94;5049776;28;19968;-47
2020/12/02 09:03:24;;;;;;;;;;;;;;;-1.32;94.97;96324.44;5087341;28;19986;-53
2020/12/02 09:05:52;;;;;;;;;;;;;;;-1.23;94.11;96329.16;5049932;28;19942;-48
2020/12/02 09:08:19;;;;;;;;;;;;;;;-1.20;94.31;96326.41;5082700;28;20486;-46
2020/12/02 09:10:46;;;;;;;;;;;;;;;-1.31;93.56;96317.50;5044321;28;19970;-46
2020/12/02 09:13:13;;;;;;;;;;;;;;;-1.21;92.67;96318.72;5083748;28;20438;-46
2020/12/02 09:15:40;;;;;;;;;;;;;;;-1.15;93.20;96313.25;5046320;28;20015;-47
2020/12/02 09:18:07;;;;;;;;;;;;;;;-1.12;92.14;96309.69;5090978;28;20341;-50
2020/12/02 09:20:34;;;;;;;;;;;;;;;-1.06;92.80;96311.97;5052179;28;19958;-46
2020/12/02 09:23:01;;;;;;;;;;;;;;;-0.96;91.42;96298.47;5088502;28;19956;-48
2020/12/02 09:25:28;;;;;;;;;;;;;;;-1.12;91.88;96299.31;5086783;28;19960;-46
2020/12/02 09:27:57;;;;;;;;;;;;;;;-1.09;91.58;96306.94;5048540;28;20178;-48
2020/12/02 09:30:24;;;;;;;;;;;;;;;-1.05;91.41;96292.94;5087580;28;19984;-46
2020/12/02 09:32:50;;;;;;;;;;;;;;;-1.16;91.11;96303.81;5046148;28;19993;-47
2020/12/02 09:35:17;;;;;;;;;;;;;;;-1.16;90.12;96295.22;5087565;28;19973;-48
2020/12/02 09:37:45;;;;;;;;;;;;;;;-0.91;90.24;96292.22;5057371;28;19960;-46
2020/12/02 09:40:13;;;;;;;;;;;;;;;-0.89;90.38;96288.66;5084879;28;20374;-47
2020/12/02 09:42:46;;;;;;;;;;;;;;;-0.86;88.41;96290.22;5054292;28;20054;-46
2020/12/02 09:45:14;;;;;;;;;;;;;;;-0.93;88.44;96291.44;5087402;28;20002;-49
2020/12/02 09:47:41;;;;;;;;;;;;;;;-0.91;87.69;96285.28;5048294;28;19970;-47
2020/12/02 09:50:08;;;;;;;;;;;;;;;-0.89;87.79;96282.63;5086196;28;20394;-50
2020/12/02 09:52:39;;;;;;;;;;;;;;;-1.14;88.24;96275.28;5042912;28;19959;-48
2020/12/02 09:55:12;;;;;;;;;;;;;;;-1.02;87.98;96285.84;5080350;28;19973;-46
2020/12/02 09:57:39;;;;;;;;;;;;;;;-1.05;86.85;96274.81;5047438;28;19973;-50
2020/12/02 10:00:07;;;;;;;;;;;;;;;-0.87;86.26;96262.66;5081230;28;19967;-48
2020/12/02 10:02:47;;;;;;;;;;;;;;;-0.75;87.12;96265.47;5041803;28;20053;-51
2020/12/02 10:05:29;;;;;;;;;;;;;;;-0.80;87.36;96269.19;5079202;28;20436;-47
2020/12/02 10:07:59;;;;;;;;;;;;;;;-0.72;86.59;96257.53;5047530;28;19969;-49
2020/12/02 10:10:31;;;;;;;;;;;;;;;-1.01;88.17;96263.38;5084610;28;20009;-46
2020/12/02 10:13:10;;;;;;;;;;;;;;;-0.90;88.44;96266.25;5042020;28;20411;-47
2020/12/02 10:15:40;;;;;;;;;;;;;;;-0.63;87.38;96257.97;5076865;28;20448;-50
2020/12/02 10:18:11;;;;;;;;;;;;;;;-0.88;87.72;96255.84;5048042;28;19961;-46
2020/12/02 10:20:41;;;;;;;;;;;;;;;-0.77;88.73;96248.34;5087117;28;20374;-51
2020/12/02 10:23:20;;;;;;;;;;;;;;;-0.64;87.49;96230.41;5052743;28;19968;-49
2020/12/02 10:26:06;;;;;;;;;;;;;;;-0.55;88.40;96240.25;5087520;28;20007;-47
2020/12/02 10:28:34;;;;;;;;;;;;;;;-0.78;87.67;96233.72;5042665;28;19957;-47
2020/12/02 10:31:10;;;;;;;;;;;;;;;-0.85;87.05;96233.22;5071970;28;20350;-46
2020/12/02 10:33:53;;;;;;;;;;;;;;;-0.78;86.11;96224.19;5051960;28;19967;-47
2020/12/02 10:36:20;;;;;;;;;;;;;;;-0.80;85.32;96228.59;5089892;28;19957;-49
2020/12/02 10:38:48;;;;;;;;;;;;;;;-0.78;86.25;96229.38;5056261;28;19952;-48
2020/12/02 10:41:20;;;;;;;;;;;;;;;-1.02;85.54;96228.91;5083837;28;19971;-48
2020/12/02 10:43:52;;;;;;;;;;;;;;;-1.06;85.54;96242.94;5045982;28;19983;-51
2020/12/02 10:46:23;;;;;;;;;;;;;;;-0.86;85.97;96225.50;5089463;28;19963;-50
2020/12/02 10:48:51;;;;;;;;;;;;;;;-0.92;85.44;96229.28;5055701;28;20026;-56
2020/12/02 10:51:18;;;;;;;;;;;;;;;-0.84;85.28;96223.69;5079598;28;19985;-47
2020/12/02 10:53:48;;;;;;;;;;;;;;;-0.84;85.92;96216.75;5091238;28;20045;-46
2020/12/02 10:56:16;;;;;;;;;;;;;;;-0.85;84.46;96215.09;5045521;28;20687;-47
2020/12/02 10:58:42;;;;;;;;;;;;;;;-1.28;85.82;96211.31;5090149;28;19967;-46
2020/12/02 11:01:10;;;;;;;;;;;;;;;-1.07;85.32;96217.94;5045999;28;20015;-50
2020/12/02 11:03:38;;;;;;;;;;;;;;;-1.01;84.89;96211.63;5091409;28;19962;-48
2020/12/02 11:06:14;;;;;;;;;;;;;;;-1.05;84.38;96213.53;5055572;28;20055;-48
2020/12/02 11:08:46;;;;;;;;;;;;;;;-0.87;84.65;96195.38;5088337;28;19951;-50
2020/12/02 11:11:16;;;;;;;;;;;;;;;-0.82;83.08;96189.03;5054841;28;20400;-48
2020/12/02 11:13:46;;;;;;;;;;;;;;;-0.98;83.91;96193.34;5088811;28;20050;-49
2020/12/02 11:16:15;;;;;;;;;;;;;;;-1.01;85.08;96189.16;5042766;28;19969;-48
2020/12/02 11:18:47;;;;;;;;;;;;;;;-1.00;83.83;96190.88;5089663;28;19960;-50
2020/12/02 11:21:22;;;;;;;;;;;;;;;-0.89;84.02;96181.69;5054071;28;19944;-48
2020/12/02 11:24:09;;;;;;;;;;;;;;;-1.04;83.93;96180.72;5090048;28;20381;-50
2020/12/02 11:26:37;;;;;;;;;;;;;;;-1.05;84.80;96181.66;5060378;28;19971;-47
2020/12/02 11:29:05;;;;;;;;;;;;;;;-1.08;83.96;96171.47;5089254;28;19969;-49
2020/12/02 11:31:39;;;;;;;;;;;;;;;-1.13;84.66;96176.06;5048853;28;19984;-51
2020/12/02 11:34:07;;;;;;;;;;;;;;;-0.94;84.58;96165.56;5088255;28;20040;-47
2020/12/02 11:36:38;;;;;;;;;;;;;;;-1.35;85.36;96161.63;5043743;28;19977;-48
2020/12/02 11:39:08;;;;;;;;;;;;;;;-1.31;85.38;96160.59;5090956;28;19947;-47
2020/12/02 11:41:37;;;;;;;;;;;;;;;-1.25;84.71;96152.47;5053643;28;19959;-49
2020/12/02 11:44:06;;;;;;;;;;;;;;;-1.22;84.69;96154.91;5090535;28;20419;-47
2020/12/02 11:46:33;;;;;;;;;;;;;;;-1.38;85.19;96156.63;5049500;28;19983;-49
2020/12/02 11:49:01;;;;;;;;;;;;;;;-1.47;84.86;96151.94;5087839;28;19993;-46
2020/12/02 11:51:32;;;;;;;;;;;;;;;-1.48;85.64;96152.84;5020901;28;19947;-47
2020/12/02 11:53:59;;;;;;;;;;;;;;;-1.27;84.11;96143.16;5088241;28;19985;-46
2020/12/02 11:56:27;;;;;;;;;;;;;;;-1.30;84.06;96135.56;5053208;28;20057;-45
2020/12/02 11:58:58;;;;;;;;;;;;;;;-1.23;83.30;96129.13;5079661;28;20523;-49
2020/12/02 12:01:26;;;;;;;;;;;;;;;-0.90;82.63;96120.47;5079533;28;19987;-46
2020/12/02 12:03:55;;;;;;;;;;;;;;;-1.16;82.96;96127.06;5050813;28;20003;-46
2020/12/02 12:06:23;;;;;;;;;;;;;;;-1.08;83.49;96128.31;5082769;28;20007;-55
2020/12/02 12:08:54;;;;;;;;;;;;;;;-1.05;83.32;96117.81;5049483;28;20488;-50
2020/12/02 12:11:23;;;;;;;;;;;;;;;-0.91;82.14;96117.06;5087559;28;19961;-48
2020/12/02 12:13:51;;;;;;;;;;;;;;;-0.94;81.50;96121.56;5042588;28;19966;-46
2020/12/02 12:16:25;;;;;;;;;;;;;;;-0.92;82.26;96120.56;5080484;28;19973;-48
2020/12/02 12:18:54;;;;;;;;;;;;;;;-0.94;82.08;96106.88;5056490;28;19986;-47
2020/12/02 12:21:27;;;;;;;;;;;;;;;-1.07;82.69;96111.03;5077917;28;20381;-47
2020/12/02 12:23:56;;;;;;;;;;;;;;;-1.10;83.38;96112.06;5047345;28;19962;-48
2020/12/02 12:26:23;;;;;;;;;;;;;;;-1.11;83.91;96106.94;5081422;28;20339;-46
2020/12/02 12:28:50;;;;;;;;;;;;;;;-1.03;83.80;96102.22;5041341;28;19963;-46
2020/12/02 12:31:20;;;;;;;;;;;;;;;-1.30;84.70;96105.34;5087127;28;19963;-51
2020/12/02 12:33:49;;;;;;;;;;;;;;;-1.39;86.31;96100.66;5039762;28;19961;-48
2020/12/02 12:36:20;;;;;;;;;;;;;;;-1.24;86.40;96099.84;5089456;28;19969;-49
2020/12/02 12:38:50;;;;;;;;;;;;;;;-1.28;85.41;96084.56;5052574;28;20414;-46
2020/12/02 12:41:20;;;;;;;;;;;;;;;-1.35;85.91;96091.81;5084659;28;19958;-48
2020/12/02 12:43:47;;;;;;;;;;;;;;;-1.46;85.35;96084.63;5050364;28;20429;-49
2020/12/02 12:46:16;;;;;;;;;;;;;;;-1.37;85.01;96080.72;5084456;28;19971;-48
2020/12/02 12:48:43;;;;;;;;;;;;;;;-1.18;84.35;96077.97;5053920;28;20512;-50